Pagrindinis puslapis
METAR-TAF:

METAR-TAF

Oro uostai :

Sidnėjaus oro uostas

Sidnėjus, Australija

platuma: 33-57S, ilguma: 151-11E, Aukštis: 6 m

Dabartinis oras

Ataskaita buvo paskelbta 17 minutes, ne 16:00 UTC
Vėjas 5 kt iš Vakarų/Pietvakarių
Temperatūra 13°C
Drėgmė 88%
Slėgis 1011 hPa
Matomumas 10 km arba daugiau
nėra debesų žemiau 1500 m ir nėra kamuolinių lietaus debesų

METAR: YSSY 311600Z 24005KT CAVOK 13/11 Q1011

Laikas: 02:17 (16:17 UTC)

Prognozė

Ataskaita buvo paskelbta 5 valandos ir 13 minutes, ne 11:04 UTC
Prognozė galioja nuo 31 metu 12 UTC su 01 metu 18 UTC
Vėjas 12 kt iš Šiaurės/Šiaurės Vakarų
Matomumas 10 km arba daugiau
nėra debesų žemiau 1500 m ir nėra kamuolinių lietaus debesų
Nuo 01 metu 0400 UTC
Vėjas 14 kt iš Vakarų
Matomumas 10 km arba daugiau
Mažai debesys ne aukštis 4500 ft
Išsisklaidę debesys ne aukštis 10000 ft

TAF: YSSY 311104Z 3112/0118 34012KT CAVOK FM010400 28014KT 9999 FEW045 SCT100

Orai ataskaitas ir orų prognozės (METAR, TAF).

turimą stotys yra geltonos ir raudonos taškus žemėlapyje.

Perkelti pele per norėdami pamatyti stoties vardą.

Tada spustelėkite, norėdami matyti oro stebėjimo ir prognozės.

Norėdami pakeisti žemėlapį: spustelėkite ant žalios mygtukų su juodo kryžiaus žemyn,; žalią mygtuką su brūkšneliu, jei norite nutolinti; arba žalių rodyklių gretimoms žemėlapius.


METAR-TAF: